Time;durP1;ratioP1;P1;durP2;ratioP2;P2;SDS_P1;SDS_P2;PMS_P1;PMS_P2;Temp;Humidity;BMP_temperature;BMP_pressure;BME280_temperature;BME280_humidity;BME280_pressure;Samples;Min_cycle;Max_cycle;Signal;HPM_P1;HPM_P2
2022/01/19 00:00:34;;;;;;;1.40;1.30;;;;;;;;;;5129207;27;20206;-62
2022/01/19 00:03:02;;;;;;;1.50;1.40;;;;;;;;;;5139879;27;20206;-62
2022/01/19 00:05:30;;;;;;;1.40;1.30;;;;;;;;;;5139684;27;20636;-62
2022/01/19 00:07:58;;;;;;;1.30;1.20;;;;;;;;;;5139819;27;20202;-62
2022/01/19 00:10:27;;;;;;;1.40;1.30;;;;;;;;;;5140035;27;20202;-61
2022/01/19 00:12:55;;;;;;;1.20;1.10;;;;;;;;;;5123108;27;20268;-62
2022/01/19 00:15:23;;;;;;;1.20;1.10;;;;;;;;;;5139270;27;20198;-62
2022/01/19 00:17:54;;;;;;;1.25;1.15;;;;;;;;;;5137773;27;20286;-62
2022/01/19 00:20:22;;;;;;;1.13;1.10;;;;;;;;;;5139895;27;20281;-62
2022/01/19 00:22:51;;;;;;;1.20;1.10;;;;;;;;;;5138887;27;20202;-64
2022/01/19 00:25:19;;;;;;;1.35;1.25;;;;;;;;;;5139923;27;20442;-62
2022/01/19 00:27:46;;;;;;;1.27;1.17;;;;;;;;;;5138994;27;20202;-62
2022/01/19 00:30:14;;;;;;;1.20;1.10;;;;;;;;;;5139632;27;20225;-62
2022/01/19 00:32:42;;;;;;;1.05;0.95;;;;;;;;;;5130218;27;20198;-62
2022/01/19 00:35:11;;;;;;;1.15;1.05;;;;;;;;;;5138521;27;20202;-62
2022/01/19 00:37:38;;;;;;;1.10;1.00;;;;;;;;;;5123356;27;20199;-62
2022/01/19 00:40:08;;;;;;;1.20;1.10;;;;;;;;;;5137958;27;20210;-62
2022/01/19 00:42:35;;;;;;;1.17;1.08;;;;;;;;;;5138688;27;20198;-62
2022/01/19 00:45:03;;;;;;;1.25;1.15;;;;;;;;;;5138345;27;20202;-62
2022/01/19 00:47:31;;;;;;;1.10;0.93;;;;;;;;;;5136239;27;20597;-62
2022/01/19 00:49:58;;;;;;;1.30;1.10;;;;;;;;;;5113989;27;20234;-62
2022/01/19 00:52:25;;;;;;;1.05;0.95;;;;;;;;;;5138275;27;20202;-62
2022/01/19 00:54:53;;;;;;;1.20;1.10;;;;;;;;;;5138979;27;20201;-62
2022/01/19 00:57:21;;;;;;;1.00;1.00;;;;;;;;;;5139485;27;20198;-63
2022/01/19 00:59:50;;;;;;;1.02;0.95;;;;;;;;;;5139191;27;20209;-62
2022/01/19 01:02:18;;;;;;;1.15;0.93;;;;;;;;;;5127188;27;20526;-62
2022/01/19 01:04:45;;;;;;;1.10;1.00;;;;;;;;;;5137948;27;20803;-62
2022/01/19 01:07:13;;;;;;;1.00;1.00;;;;;;;;;;5138420;27;20225;-62
2022/01/19 01:09:40;;;;;;;1.10;1.00;;;;;;;;;;5120500;27;20210;-62
2022/01/19 01:12:12;;;;;;;0.95;0.95;;;;;;;;;;5118412;28;20199;-62
2022/01/19 01:20:12;;;;;;;1.02;0.90;;;;;;;;;;5138261;27;20194;-62
2022/01/19 01:22:40;;;;;;;1.00;1.00;;;;;;;;;;5138183;27;20209;-63
2022/01/19 01:25:08;;;;;;;0.90;0.90;;;;;;;;;;5138924;27;20202;-62
2022/01/19 01:27:35;;;;;;;0.80;0.80;;;;;;;;;;5135854;27;20239;-62
2022/01/19 01:30:04;;;;;;;0.90;0.90;;;;;;;;;;5138448;27;20202;-62
2022/01/19 01:32:32;;;;;;;1.15;0.80;;;;;;;;;;5137280;27;20476;-62
2022/01/19 01:34:59;;;;;;;0.90;0.80;;;;;;;;;;5097514;28;20204;-62
2022/01/19 01:37:26;;;;;;;1.10;0.95;;;;;;;;;;5130296;27;20195;-62
2022/01/19 01:39:54;;;;;;;0.95;0.90;;;;;;;;;;5137231;27;20202;-62
2022/01/19 01:42:23;;;;;;;0.70;0.70;;;;;;;;;;5122317;27;20488;-62
2022/01/19 01:44:53;;;;;;;1.58;0.82;;;;;;;;;;5134228;27;20190;-62
2022/01/19 01:47:22;;;;;;;0.80;0.80;;;;;;;;;;5136310;27;20257;-62
2022/01/19 01:55:18;;;;;;;0.80;0.77;;;;;;;;;;5120679;27;20621;-62
2022/01/19 01:57:45;;;;;;;0.93;0.70;;;;;;;;;;5117555;28;20543;-62
2022/01/19 02:00:14;;;;;;;1.38;0.90;;;;;;;;;;5117673;28;20601;-62
2022/01/19 02:02:43;;;;;;;0.90;0.90;;;;;;;;;;5117326;28;20199;-62
2022/01/19 02:05:10;;;;;;;1.00;0.90;;;;;;;;;;5117418;28;20582;-62
2022/01/19 02:07:46;;;;;;;0.70;0.70;;;;;;;;;;5117630;27;20489;-62
2022/01/19 02:10:30;;;;;;;0.88;0.88;;;;;;;;;;5138196;27;20202;-62
2022/01/19 02:15:53;;;;;;;1.50;1.00;;;;;;;;;;5137473;27;20581;-62
2022/01/19 02:23:56;;;;;;;1.60;0.80;;;;;;;;;;5137429;27;20456;-62
2022/01/19 02:26:29;;;;;;;0.80;0.80;;;;;;;;;;5137701;27;20224;-62
2022/01/19 02:29:05;;;;;;;1.08;0.90;;;;;;;;;;5136910;27;20198;-62
2022/01/19 02:36:31;;;;;;;0.90;0.90;;;;;;;;;;5137455;27;20198;-62
2022/01/19 02:40:13;;;;;;;1.00;1.00;;;;;;;;;;5085642;28;20210;-62
2022/01/19 02:42:52;;;;;;;0.82;0.82;;;;;;;;;;5134836;27;20206;-62
2022/01/19 02:50:51;;;;;;;0.80;0.80;;;;;;;;;;5136538;27;20197;-62
2022/01/19 02:53:20;;;;;;;0.70;0.70;;;;;;;;;;5136620;27;20198;-62
2022/01/19 02:55:47;;;;;;;0.70;0.70;;;;;;;;;;5137116;27;20202;-62
2022/01/19 02:58:19;;;;;;;0.70;0.70;;;;;;;;;;5137595;28;20206;-63
2022/01/19 03:08:42;;;;;;;0.70;0.70;;;;;;;;;;5140975;27;20258;-62
2022/01/19 03:09:05;;;;;;;0.70;0.70;;;;;;;;;;5141428;27;20539;-62
2022/01/19 03:11:35;;;;;;;0.90;0.80;;;;;;;;;;5141130;27;20198;-62
2022/01/19 03:14:04;;;;;;;0.60;0.60;;;;;;;;;;5141523;27;20198;-63
2022/01/19 03:16:31;;;;;;;0.75;0.75;;;;;;;;;;5140286;27;20191;-62
2022/01/19 03:18:59;;;;;;;1.08;0.98;;;;;;;;;;5140931;27;20198;-62
2022/01/19 03:21:26;;;;;;;0.75;0.75;;;;;;;;;;5140761;27;20660;-62
2022/01/19 03:23:54;;;;;;;0.80;0.80;;;;;;;;;;5141326;27;20199;-62
2022/01/19 03:26:22;;;;;;;0.80;0.80;;;;;;;;;;5140298;27;20522;-62
2022/01/19 03:28:50;;;;;;;0.70;0.70;;;;;;;;;;5139513;27;20585;-62
2022/01/19 03:31:17;;;;;;;0.90;0.90;;;;;;;;;;5141326;27;20222;-62
2022/01/19 03:33:45;;;;;;;0.93;0.88;;;;;;;;;;5141188;27;20211;-62
2022/01/19 03:36:12;;;;;;;0.70;0.70;;;;;;;;;;5140436;27;20195;-62
2022/01/19 03:38:40;;;;;;;0.90;0.90;;;;;;;;;;5140549;27;20198;-62
2022/01/19 03:41:07;;;;;;;0.80;0.80;;;;;;;;;;5140282;27;20491;-62
2022/01/19 03:43:36;;;;;;;0.80;0.80;;;;;;;;;;5140833;27;20202;-62
2022/01/19 03:46:04;;;;;;;0.80;0.80;;;;;;;;;;5139891;27;20206;-62
2022/01/19 03:48:43;;;;;;;0.80;0.80;;;;;;;;;;5141125;27;20209;-62
2022/01/19 03:51:10;;;;;;;0.80;0.80;;;;;;;;;;5139935;27;20204;-62
2022/01/19 03:53:38;;;;;;;0.70;0.70;;;;;;;;;;5140283;27;20206;-62
2022/01/19 03:56:05;;;;;;;0.80;0.80;;;;;;;;;;5140322;27;20206;-62
2022/01/19 03:58:33;;;;;;;0.95;0.90;;;;;;;;;;5139362;27;20198;-62
2022/01/19 04:01:03;;;;;;;0.90;0.90;;;;;;;;;;5139850;27;20198;-62
2022/01/19 04:03:45;;;;;;;0.80;0.80;;;;;;;;;;5140189;27;20566;-62
2022/01/19 04:06:19;;;;;;;0.93;0.93;;;;;;;;;;5139990;27;20292;-62
2022/01/19 04:08:46;;;;;;;0.75;0.75;;;;;;;;;;5139077;27;20200;-62
2022/01/19 04:11:16;;;;;;;0.80;0.80;;;;;;;;;;5139602;27;20225;-62
2022/01/19 04:14:21;;;;;;;0.75;0.75;;;;;;;;;;5140150;27;20209;-62
2022/01/19 04:16:46;;;;;;;1.00;0.88;;;;;;;;;;5140045;27;20284;-62
2022/01/19 04:19:23;;;;;;;0.90;0.90;;;;;;;;;;5139776;27;20226;-62
2022/01/19 04:21:50;;;;;;;1.08;1.08;;;;;;;;;;5139389;27;20229;-62
2022/01/19 04:24:18;;;;;;;0.70;0.70;;;;;;;;;;5139935;27;20198;-62
2022/01/19 04:26:46;;;;;;;1.00;1.00;;;;;;;;;;5139210;27;20222;-63
2022/01/19 04:29:14;;;;;;;0.85;0.85;;;;;;;;;;5135126;27;20613;-62
2022/01/19 04:31:42;;;;;;;0.90;0.90;;;;;;;;;;5139703;27;20198;-62
2022/01/19 04:34:13;;;;;;;1.23;1.00;;;;;;;;;;5138743;27;20214;-62
2022/01/19 04:37:10;;;;;;;0.80;0.80;;;;;;;;;;5139297;27;20530;-62
2022/01/19 04:45:32;;;;;;;0.90;0.90;;;;;;;;;;5138849;27;20250;-62
2022/01/19 04:48:17;;;;;;;1.17;0.90;;;;;;;;;;5139064;27;20321;-62
2022/01/19 05:01:52;;;;;;;0.77;0.77;;;;;;;;;;5137553;27;20224;-63
2022/01/19 05:04:30;;;;;;;0.90;0.90;;;;;;;;;;5138759;27;20233;-62
2022/01/19 05:07:14;;;;;;;1.08;1.02;;;;;;;;;;5137941;27;20303;-62
2022/01/19 05:15:11;;;;;;;1.25;1.15;;;;;;;;;;5137558;27;20292;-62
2022/01/19 05:17:39;;;;;;;1.60;1.10;;;;;;;;;;5137870;27;20229;-62
2022/01/19 05:20:07;;;;;;;1.10;1.00;;;;;;;;;;5138629;27;20594;-62
2022/01/19 05:22:36;;;;;;;1.05;1.05;;;;;;;;;;5138503;27;20203;-63
2022/01/19 05:25:03;;;;;;;1.30;1.20;;;;;;;;;;5139042;27;20213;-63
2022/01/19 05:27:31;;;;;;;1.27;1.20;;;;;;;;;;5137159;27;20243;-62
2022/01/19 05:29:58;;;;;;;1.30;1.20;;;;;;;;;;5138237;27;20223;-62
2022/01/19 05:32:25;;;;;;;1.40;1.30;;;;;;;;;;5137477;27;20209;-63
2022/01/19 05:34:53;;;;;;;1.40;1.30;;;;;;;;;;5137521;27;20495;-62
2022/01/19 05:37:20;;;;;;;1.10;1.00;;;;;;;;;;5138564;27;20207;-63
2022/01/19 05:39:49;;;;;;;1.30;1.20;;;;;;;;;;5136915;27;20585;-62
2022/01/19 05:42:16;;;;;;;1.50;1.40;;;;;;;;;;5137638;27;20205;-62
2022/01/19 05:44:44;;;;;;;1.30;1.20;;;;;;;;;;5138338;27;20217;-62
2022/01/19 05:47:12;;;;;;;1.40;1.30;;;;;;;;;;5135981;27;20210;-63
2022/01/19 05:49:39;;;;;;;1.50;1.40;;;;;;;;;;5136889;27;20203;-63
2022/01/19 05:52:08;;;;;;;1.45;1.35;;;;;;;;;;5137308;27;20202;-62
2022/01/19 05:54:35;;;;;;;1.40;1.30;;;;;;;;;;5136521;27;20191;-62
2022/01/19 05:57:04;;;;;;;1.60;1.50;;;;;;;;;;5136111;27;20202;-62
2022/01/19 05:59:31;;;;;;;1.50;1.40;;;;;;;;;;5136341;27;20641;-62
2022/01/19 06:01:59;;;;;;;1.60;1.50;;;;;;;;;;5135193;27;20190;-63
2022/01/19 06:04:26;;;;;;;1.70;1.60;;;;;;;;;;5134937;27;20756;-63
2022/01/19 06:06:56;;;;;;;1.65;1.55;;;;;;;;;;5133495;27;20203;-62
2022/01/19 06:09:34;;;;;;;2.17;1.70;;;;;;;;;;5133830;27;20201;-63
2022/01/19 06:12:03;;;;;;;1.48;1.38;;;;;;;;;;5135486;27;20201;-63
2022/01/19 06:14:32;;;;;;;1.85;1.75;;;;;;;;;;5136127;27;20274;-62
2022/01/19 06:16:59;;;;;;;1.75;1.65;;;;;;;;;;5134620;27;20226;-62
2022/01/19 06:19:26;;;;;;;1.48;1.38;;;;;;;;;;5135787;27;20221;-62
2022/01/19 06:21:54;;;;;;;1.67;1.58;;;;;;;;;;5135054;27;20222;-62
2022/01/19 06:24:21;;;;;;;1.65;1.55;;;;;;;;;;5135247;27;20600;-62
2022/01/19 06:26:49;;;;;;;1.50;1.40;;;;;;;;;;5134978;27;20198;-62
2022/01/19 06:29:16;;;;;;;1.70;1.60;;;;;;;;;;5134684;27;20198;-63
2022/01/19 06:31:45;;;;;;;2.03;1.80;;;;;;;;;;5135170;27;20202;-63
2022/01/19 06:34:12;;;;;;;1.60;1.50;;;;;;;;;;5134154;27;20198;-64
2022/01/19 06:36:40;;;;;;;1.80;1.70;;;;;;;;;;5134872;27;20225;-62
2022/01/19 06:39:07;;;;;;;2.00;1.90;;;;;;;;;;5134677;27;20198;-62
2022/01/19 06:41:34;;;;;;;1.90;1.80;;;;;;;;;;5134464;27;20208;-63
2022/01/19 06:44:02;;;;;;;1.70;1.60;;;;;;;;;;5135439;27;20203;-62
2022/01/19 06:46:29;;;;;;;2.10;2.00;;;;;;;;;;5134095;27;20615;-64
2022/01/19 06:48:58;;;;;;;1.75;1.65;;;;;;;;;;5135773;27;20508;-62
2022/01/19 06:51:25;;;;;;;1.83;1.73;;;;;;;;;;5135302;27;20589;-63
2022/01/19 06:53:53;;;;;;;1.60;1.50;;;;;;;;;;5136007;27;20202;-63
2022/01/19 06:56:20;;;;;;;1.90;1.80;;;;;;;;;;5135722;27;20198;-62
2022/01/19 06:58:48;;;;;;;1.70;1.60;;;;;;;;;;5136390;27;20243;-63
2022/01/19 07:01:15;;;;;;;1.77;1.67;;;;;;;;;;5135428;28;20236;-62
2022/01/19 07:03:43;;;;;;;1.65;1.55;;;;;;;;;;5135003;28;20222;-62
2022/01/19 07:06:12;;;;;;;1.73;1.63;;;;;;;;;;5135209;28;20198;-63
2022/01/19 07:08:39;;;;;;;1.80;1.70;;;;;;;;;;5132266;28;20214;-63
2022/01/19 07:11:06;;;;;;;1.55;1.45;;;;;;;;;;5134960;28;20518;-63
2022/01/19 07:13:34;;;;;;;1.70;1.60;;;;;;;;;;5136311;28;20213;-62
2022/01/19 07:16:02;;;;;;;1.60;1.50;;;;;;;;;;5135133;28;20616;-62
2022/01/19 07:18:29;;;;;;;1.77;1.67;;;;;;;;;;5133831;27;20194;-62
2022/01/19 07:20:57;;;;;;;1.70;1.60;;;;;;;;;;5134724;28;20245;-64
2022/01/19 07:23:25;;;;;;;1.58;1.48;;;;;;;;;;5134543;28;20193;-63
2022/01/19 07:25:53;;;;;;;1.58;1.48;;;;;;;;;;5135773;28;20217;-62
2022/01/19 07:28:20;;;;;;;1.70;1.58;;;;;;;;;;5135625;27;20226;-62
2022/01/19 07:30:48;;;;;;;1.77;1.67;;;;;;;;;;5135830;27;20205;-62
2022/01/19 07:33:15;;;;;;;1.67;1.58;;;;;;;;;;5136123;27;20213;-64
2022/01/19 07:35:42;;;;;;;1.58;1.48;;;;;;;;;;5134751;28;20206;-63
2022/01/19 07:38:10;;;;;;;1.45;1.35;;;;;;;;;;5135292;28;20213;-62
2022/01/19 07:40:38;;;;;;;1.52;1.42;;;;;;;;;;5135893;28;20195;-63
2022/01/19 07:43:07;;;;;;;1.65;1.55;;;;;;;;;;5135605;28;20667;-63
2022/01/19 07:45:35;;;;;;;1.70;1.60;;;;;;;;;;5135380;27;20203;-62
2022/01/19 07:48:02;;;;;;;1.50;1.40;;;;;;;;;;5135465;28;20218;-62
2022/01/19 07:50:29;;;;;;;1.40;1.30;;;;;;;;;;5138257;27;20202;-62
2022/01/19 07:52:57;;;;;;;1.50;1.40;;;;;;;;;;5139748;27;20202;-62
2022/01/19 07:55:25;;;;;;;1.40;1.30;;;;;;;;;;5138845;27;20484;-63
2022/01/19 07:57:54;;;;;;;1.20;1.15;;;;;;;;;;5138500;27;20191;-62
2022/01/19 08:00:21;;;;;;;1.45;1.35;;;;;;;;;;5139615;27;20202;-62
2022/01/19 08:02:50;;;;;;;1.45;1.35;;;;;;;;;;5138102;27;20201;-62
2022/01/19 08:05:17;;;;;;;1.25;1.15;;;;;;;;;;5139311;27;20302;-62
2022/01/19 08:07:44;;;;;;;1.55;1.45;;;;;;;;;;5137466;27;20626;-62
2022/01/19 08:10:13;;;;;;;1.40;1.30;;;;;;;;;;5138015;27;20205;-65
2022/01/19 08:12:40;;;;;;;1.38;1.27;;;;;;;;;;5139365;27;20209;-65
2022/01/19 08:15:09;;;;;;;1.67;1.50;;;;;;;;;;5138754;27;20202;-62
2022/01/19 08:17:37;;;;;;;1.30;1.20;;;;;;;;;;5138063;27;20589;-63
2022/01/19 08:20:05;;;;;;;1.10;1.10;;;;;;;;;;5137495;27;20697;-62
2022/01/19 08:22:32;;;;;;;1.50;1.40;;;;;;;;;;5138525;27;20202;-62
2022/01/19 08:24:59;;;;;;;1.40;1.30;;;;;;;;;;5139001;27;20585;-62
2022/01/19 08:27:27;;;;;;;1.50;1.40;;;;;;;;;;5120223;27;20207;-62
2022/01/19 08:29:54;;;;;;;1.42;1.33;;;;;;;;;;5118255;28;20210;-61
2022/01/19 08:32:23;;;;;;;2.55;1.50;;;;;;;;;;5117095;28;20199;-64
2022/01/19 08:34:50;;;;;;;1.30;1.20;;;;;;;;;;5133791;27;20199;-63
2022/01/19 08:37:18;;;;;;;1.48;1.38;;;;;;;;;;5121130;27;20195;-61
2022/01/19 08:39:45;;;;;;;1.38;1.27;;;;;;;;;;5135785;27;20186;-62
2022/01/19 08:42:13;;;;;;;1.38;1.27;;;;;;;;;;5120631;27;20470;-61
2022/01/19 08:44:40;;;;;;;1.40;1.30;;;;;;;;;;5118144;28;20199;-61
2022/01/19 08:47:08;;;;;;;1.20;1.20;;;;;;;;;;5118118;27;20206;-63
2022/01/19 08:49:37;;;;;;;1.40;1.30;;;;;;;;;;5117193;27;20219;-63
2022/01/19 08:52:05;;;;;;;1.40;1.30;;;;;;;;;;5127315;27;20202;-62
2022/01/19 08:54:32;;;;;;;1.50;1.40;;;;;;;;;;5136411;27;20203;-62
2022/01/19 08:57:01;;;;;;;1.50;1.40;;;;;;;;;;5117954;27;20199;-62
2022/01/19 08:59:28;;;;;;;1.40;1.30;;;;;;;;;;5137176;27;20296;-62
2022/01/19 09:01:56;;;;;;;1.98;1.30;;;;;;;;;;5134746;27;20585;-62
2022/01/19 09:04:23;;;;;;;1.52;1.20;;;;;;;;;;5136081;27;20198;-63
2022/01/19 09:06:53;;;;;;;3.08;1.33;;;;;;;;;;5136577;27;20486;-62
2022/01/19 09:09:21;;;;;;;1.33;1.23;;;;;;;;;;5118467;27;20219;-62
2022/01/19 09:11:48;;;;;;;1.95;1.30;;;;;;;;;;5115296;27;20195;-63
2022/01/19 09:14:16;;;;;;;3.08;1.30;;;;;;;;;;5131167;27;20195;-63
2022/01/19 09:16:43;;;;;;;3.28;1.40;;;;;;;;;;5134329;27;20217;-62
2022/01/19 09:19:12;;;;;;;1.20;1.10;;;;;;;;;;5136260;27;20198;-65
2022/01/19 09:21:40;;;;;;;1.98;1.33;;;;;;;;;;5135296;27;20226;-64
2022/01/19 09:24:10;;;;;;;1.60;1.42;;;;;;;;;;5134433;27;20558;-64
2022/01/19 09:26:37;;;;;;;3.05;1.20;;;;;;;;;;5135596;27;20210;-64
2022/01/19 09:29:05;;;;;;;6.57;1.83;;;;;;;;;;5136652;27;20682;-61
2022/01/19 09:31:34;;;;;;;4.10;1.40;;;;;;;;;;5136364;27;20190;-64
2022/01/19 09:34:08;;;;;;;2.03;1.10;;;;;;;;;;5136019;27;20228;-64
2022/01/19 09:36:43;;;;;;;1.67;1.23;;;;;;;;;;5123485;27;20239;-63
2022/01/19 09:39:13;;;;;;;2.22;1.20;;;;;;;;;;5129133;27;20198;-63
2022/01/19 09:41:41;;;;;;;1.73;1.27;;;;;;;;;;5123882;27;20207;-62
2022/01/19 09:44:09;;;;;;;1.30;1.20;;;;;;;;;;5115017;27;20195;-63
2022/01/19 09:46:36;;;;;;;2.95;1.10;;;;;;;;;;5134516;27;20467;-63
2022/01/19 09:49:05;;;;;;;3.60;1.52;;;;;;;;;;5136283;27;20229;-64
2022/01/19 09:51:33;;;;;;;1.65;1.20;;;;;;;;;;5125545;27;20490;-62
2022/01/19 09:54:00;;;;;;;2.95;1.20;;;;;;;;;;5115472;28;20203;-63
2022/01/19 09:56:29;;;;;;;2.67;1.40;;;;;;;;;;5115590;27;20218;-61
2022/01/19 09:58:57;;;;;;;2.05;1.30;;;;;;;;;;5115424;28;20195;-63
2022/01/19 10:01:25;;;;;;;3.45;1.55;;;;;;;;;;5115724;28;20195;-63
2022/01/19 10:03:53;;;;;;;1.88;1.10;;;;;;;;;;5115384;28;20217;-64
2022/01/19 10:06:22;;;;;;;1.80;1.30;;;;;;;;;;5123967;27;20191;-63
2022/01/19 10:08:51;;;;;;;2.53;1.40;;;;;;;;;;5122010;27;20219;-61
2022/01/19 10:11:21;;;;;;;2.10;1.20;;;;;;;;;;5114577;28;20195;-62
2022/01/19 10:19:22;;;;;;;3.50;1.30;;;;;;;;;;5135200;27;20603;-64
2022/01/19 10:21:57;;;;;;;2.55;1.20;;;;;;;;;;5135230;27;20230;-61
2022/01/19 10:24:33;;;;;;;2.15;0.90;;;;;;;;;;5134345;27;20642;-62
2022/01/19 10:27:15;;;;;;;2.35;1.10;;;;;;;;;;5133558;27;20198;-64
2022/01/19 10:29:44;;;;;;;2.33;1.10;;;;;;;;;;5133380;27;20241;-62
2022/01/19 10:32:11;;;;;;;2.35;1.38;;;;;;;;;;5133132;27;20198;-67
2022/01/19 10:34:39;;;;;;;2.92;1.02;;;;;;;;;;5120834;27;20206;-68
2022/01/19 10:37:06;;;;;;;1.58;1.20;;;;;;;;;;5128035;27;20194;-67
2022/01/19 10:39:40;;;;;;;2.28;0.93;;;;;;;;;;5115177;27;20222;-67
2022/01/19 10:42:09;;;;;;;3.22;1.00;;;;;;;;;;5111655;28;20213;-67
2022/01/19 10:44:38;;;;;;;1.48;1.00;;;;;;;;;;5112462;28;20206;-67
2022/01/19 10:47:07;;;;;;;1.65;0.90;;;;;;;;;;5128802;27;20510;-67
2022/01/19 10:49:54;;;;;;;3.35;1.10;;;;;;;;;;5133768;27;20222;-67
2022/01/19 10:52:31;;;;;;;0.95;0.93;;;;;;;;;;5133030;27;20252;-67
2022/01/19 10:54:59;;;;;;;1.58;1.05;;;;;;;;;;5132660;27;20190;-67
2022/01/19 10:57:28;;;;;;;2.35;0.93;;;;;;;;;;5133676;27;20198;-67
2022/01/19 11:00:10;;;;;;;1.15;1.02;;;;;;;;;;5134156;28;20190;-67
2022/01/19 11:02:39;;;;;;;3.83;2.42;;;;;;;;;;5135188;28;20217;-67
2022/01/19 11:05:07;;;;;;;5.82;3.50;;;;;;;;;;5132299;28;20202;-67
2022/01/19 11:07:34;;;;;;;6.57;3.60;;;;;;;;;;5099461;28;20199;-67
2022/01/19 11:10:09;;;;;;;6.07;3.45;;;;;;;;;;5113528;28;20233;-67
2022/01/19 11:12:43;;;;;;;4.75;3.00;;;;;;;;;;5114969;28;20202;-65
2022/01/19 11:15:11;;;;;;;6.10;2.90;;;;;;;;;;5114977;28;20202;-65
2022/01/19 11:17:40;;;;;;;4.68;2.80;;;;;;;;;;5132566;28;20194;-67
2022/01/19 11:20:08;;;;;;;4.53;2.85;;;;;;;;;;5133307;28;20209;-67
2022/01/19 11:22:41;;;;;;;4.03;2.50;;;;;;;;;;5114569;28;20207;-65
2022/01/19 11:25:13;;;;;;;5.80;2.40;;;;;;;;;;5116621;27;20221;-67
2022/01/19 11:27:43;;;;;;;3.42;2.40;;;;;;;;;;5117612;28;20590;-65
2022/01/19 11:30:13;;;;;;;3.72;2.20;;;;;;;;;;5132564;27;20232;-67
2022/01/19 11:32:42;;;;;;;3.38;2.03;;;;;;;;;;5138417;27;20201;-67
2022/01/19 11:35:11;;;;;;;4.38;2.35;;;;;;;;;;5135949;27;20207;-66
2022/01/19 11:37:44;;;;;;;4.93;2.83;;;;;;;;;;5119163;27;20199;-66
2022/01/19 11:40:13;;;;;;;3.08;1.90;;;;;;;;;;5136162;27;20659;-67
2022/01/19 11:42:41;;;;;;;4.30;2.30;;;;;;;;;;5135419;27;20200;-66
2022/01/19 11:45:09;;;;;;;5.15;2.38;;;;;;;;;;5120811;27;20211;-66
2022/01/19 11:47:38;;;;;;;3.45;2.33;;;;;;;;;;5118775;27;20195;-67
2022/01/19 11:50:08;;;;;;;4.10;2.22;;;;;;;;;;5132471;27;20220;-67
2022/01/19 11:53:10;;;;;;;2.58;1.85;;;;;;;;;;5125057;27;20199;-66
2022/01/19 11:55:37;;;;;;;3.10;1.88;;;;;;;;;;5037818;28;20316;-67
2022/01/19 11:58:20;;;;;;;4.82;1.80;;;;;;;;;;5120335;27;20788;-67
2022/01/19 12:00:49;;;;;;;4.75;2.00;;;;;;;;;;5102288;27;20252;-67
2022/01/19 12:03:18;;;;;;;3.78;1.90;;;;;;;;;;5124184;27;20213;-67
2022/01/19 12:05:47;;;;;;;2.47;1.60;;;;;;;;;;5122791;27;20199;-67
2022/01/19 12:08:22;;;;;;;3.38;1.70;;;;;;;;;;5131232;27;20502;-67
2022/01/19 12:10:51;;;;;;;3.83;1.95;;;;;;;;;;5135608;27;20547;-66
2022/01/19 12:13:29;;;;;;;2.30;1.70;;;;;;;;;;5135167;27;20237;-67
2022/01/19 12:16:00;;;;;;;4.78;2.17;;;;;;;;;;5134676;27;20237;-66
2022/01/19 12:18:54;;;;;;;3.25;1.80;;;;;;;;;;5135000;27;20242;-67
2022/01/19 12:21:40;;;;;;;2.72;1.83;;;;;;;;;;5078134;27;20256;-66
2022/01/19 12:24:14;;;;;;;2.60;1.80;;;;;;;;;;5137087;27;20210;-66
2022/01/19 12:26:52;;;;;;;1.65;1.55;;;;;;;;;;5136694;27;20214;-67
2022/01/19 12:29:52;;;;;;;4.97;1.70;;;;;;;;;;5135935;27;20222;-66
2022/01/19 12:32:53;;;;;;;2.35;1.70;;;;;;;;;;5134690;27;20449;-67
2022/01/19 12:35:22;;;;;;;2.88;1.80;;;;;;;;;;5123978;27;20275;-67
2022/01/19 12:37:52;;;;;;;2.65;1.80;;;;;;;;;;5132740;27;20198;-66
2022/01/19 12:40:32;;;;;;;3.65;1.73;;;;;;;;;;5132525;27;20187;-66
2022/01/19 12:43:01;;;;;;;2.15;1.80;;;;;;;;;;5125112;27;20449;-66
2022/01/19 12:45:29;;;;;;;1.80;1.70;;;;;;;;;;5133202;27;20190;-66
2022/01/19 12:47:57;;;;;;;1.95;1.65;;;;;;;;;;5132554;27;20270;-66
2022/01/19 12:50:49;;;;;;;2.33;1.85;;;;;;;;;;5133622;27;20288;-68
2022/01/19 12:53:19;;;;;;;2.75;1.70;;;;;;;;;;5108035;27;20190;-66
2022/01/19 12:55:50;;;;;;;2.85;1.48;;;;;;;;;;5132420;27;20218;-66
2022/01/19 12:58:22;;;;;;;2.47;1.67;;;;;;;;;;5134948;27;20214;-67
2022/01/19 13:00:51;;;;;;;2.63;1.85;;;;;;;;;;5137031;27;20199;-67
2022/01/19 13:03:21;;;;;;;3.90;1.92;;;;;;;;;;5135828;27;20505;-67
2022/01/19 13:05:50;;;;;;;2.53;2.00;;;;;;;;;;5136938;27;20206;-66
2022/01/19 13:08:27;;;;;;;3.45;2.13;;;;;;;;;;5134985;27;20198;-66
2022/01/19 13:11:00;;;;;;;2.67;1.92;;;;;;;;;;5127238;27;20221;-66
2022/01/19 13:13:29;;;;;;;3.20;1.77;;;;;;;;;;5135495;27;20318;-66
2022/01/19 13:15:58;;;;;;;3.97;2.13;;;;;;;;;;5136554;27;20202;-66
2022/01/19 13:18:33;;;;;;;3.03;2.25;;;;;;;;;;5134433;27;20198;-66
2022/01/19 13:21:04;;;;;;;1.98;1.77;;;;;;;;;;5136517;27;20640;-67
2022/01/19 13:23:34;;;;;;;3.13;2.25;;;;;;;;;;5135092;27;20206;-66
2022/01/19 13:26:03;;;;;;;2.60;1.73;;;;;;;;;;5134259;27;20202;-67
2022/01/19 13:28:31;;;;;;;3.28;2.30;;;;;;;;;;5135129;27;20612;-67
2022/01/19 13:31:10;;;;;;;2.10;1.90;;;;;;;;;;5136001;27;20223;-67
2022/01/19 13:33:37;;;;;;;2.20;2.00;;;;;;;;;;5134476;27;20209;-66
2022/01/19 13:36:05;;;;;;;2.45;1.85;;;;;;;;;;5135606;27;20201;-67
2022/01/19 13:38:34;;;;;;;4.45;2.10;;;;;;;;;;5134126;27;20190;-67
2022/01/19 13:41:05;;;;;;;2.20;1.77;;;;;;;;;;5136035;27;20221;-67
2022/01/19 13:43:36;;;;;;;2.30;2.10;;;;;;;;;;5134775;27;20205;-67
2022/01/19 13:46:13;;;;;;;3.35;2.10;;;;;;;;;;5136016;27;20202;-67
2022/01/19 13:48:41;;;;;;;2.33;1.80;;;;;;;;;;5134145;27;20214;-66
2022/01/19 13:51:10;;;;;;;1.70;1.60;;;;;;;;;;5135490;27;20229;-67
2022/01/19 13:53:39;;;;;;;2.90;1.98;;;;;;;;;;5135753;27;20492;-67
2022/01/19 13:56:09;;;;;;;3.90;1.85;;;;;;;;;;5134785;27;20190;-67
2022/01/19 13:58:38;;;;;;;2.47;1.70;;;;;;;;;;5134307;27;20292;-67
2022/01/19 14:01:10;;;;;;;3.60;1.80;;;;;;;;;;5133774;27;20597;-67
2022/01/19 14:03:51;;;;;;;2.53;1.65;;;;;;;;;;5133825;27;20574;-68
2022/01/19 14:06:22;;;;;;;2.50;1.80;;;;;;;;;;5132534;27;20860;-67
2022/01/19 14:08:51;;;;;;;2.08;1.45;;;;;;;;;;5130639;27;20585;-67
2022/01/19 14:11:25;;;;;;;3.85;1.58;;;;;;;;;;5131822;27;20633;-67
2022/01/19 14:13:59;;;;;;;2.35;1.65;;;;;;;;;;5132524;27;20509;-68
2022/01/19 14:16:31;;;;;;;2.40;1.50;;;;;;;;;;5133149;27;20733;-67
2022/01/19 14:19:22;;;;;;;3.30;1.83;;;;;;;;;;5113880;28;20226;-68
2022/01/19 14:22:09;;;;;;;2.35;1.80;;;;;;;;;;5105935;27;20237;-68
2022/01/19 14:24:48;;;;;;;1.73;1.60;;;;;;;;;;5131949;27;20518;-67
2022/01/19 14:27:32;;;;;;;1.83;1.60;;;;;;;;;;5132142;27;20311;-67
2022/01/19 14:30:02;;;;;;;2.67;1.90;;;;;;;;;;5132910;27;20234;-67
2022/01/19 14:32:40;;;;;;;2.88;1.58;;;;;;;;;;5131702;27;20581;-68
2022/01/19 14:35:20;;;;;;;4.57;2.03;;;;;;;;;;5111752;28;20198;-67
2022/01/19 14:38:01;;;;;;;3.47;1.70;;;;;;;;;;5124104;27;20210;-66
2022/01/19 14:40:30;;;;;;;2.50;1.50;;;;;;;;;;5134376;27;20226;-67
2022/01/19 14:42:57;;;;;;;1.60;1.27;;;;;;;;;;5134252;27;20209;-66
2022/01/19 14:45:28;;;;;;;2.45;1.60;;;;;;;;;;5134002;27;20213;-66
2022/01/19 14:47:57;;;;;;;2.65;1.58;;;;;;;;;;5131409;27;20202;-67
2022/01/19 14:50:26;;;;;;;2.28;1.70;;;;;;;;;;5132423;27;20671;-67
2022/01/19 14:52:54;;;;;;;6.75;5.55;;;;;;;;;;5132730;27;20209;-66
2022/01/19 14:55:22;;;;;;;20.95;18.75;;;;;;;;;;5133052;27;20194;-67
2022/01/19 14:57:52;;;;;;;129.88;100.22;;;;;;;;;;5129614;27;20209;-66
2022/01/19 15:00:20;;;;;;;125.78;92.03;;;;;;;;;;5131430;27;20266;-66
2022/01/19 15:02:51;;;;;;;104.78;79.20;;;;;;;;;;5132105;27;20206;-67
2022/01/19 15:05:19;;;;;;;102.28;74.57;;;;;;;;;;5134063;27;20714;-67
2022/01/19 15:07:47;;;;;;;95.57;67.47;;;;;;;;;;5133957;27;20198;-68
2022/01/19 15:10:15;;;;;;;88.05;64.03;;;;;;;;;;5135239;27;20516;-68
2022/01/19 15:12:42;;;;;;;86.28;60.00;;;;;;;;;;5134856;27;20221;-68
2022/01/19 15:15:11;;;;;;;77.97;58.90;;;;;;;;;;5133404;27;20221;-67
2022/01/19 15:17:39;;;;;;;72.75;55.53;;;;;;;;;;5133337;27;20221;-67
2022/01/19 15:20:07;;;;;;;68.75;54.42;;;;;;;;;;5134142;27;20194;-67
2022/01/19 15:22:35;;;;;;;66.68;52.45;;;;;;;;;;5134334;27;20194;-68
2022/01/19 15:25:02;;;;;;;65.72;50.17;;;;;;;;;;5134209;27;20790;-68
2022/01/19 15:27:30;;;;;;;62.08;46.85;;;;;;;;;;5133778;27;20629;-68
2022/01/19 15:29:57;;;;;;;58.35;45.53;;;;;;;;;;5132270;27;20203;-69
2022/01/19 15:32:26;;;;;;;58.78;44.42;;;;;;;;;;5134348;28;20194;-68
2022/01/19 15:34:53;;;;;;;55.88;42.67;;;;;;;;;;5133632;27;20198;-68
2022/01/19 15:37:21;;;;;;;166.95;149.68;;;;;;;;;;5134127;28;20288;-69
2022/01/19 15:39:49;;;;;;;159.15;142.07;;;;;;;;;;5134532;28;20198;-68
2022/01/19 15:42:17;;;;;;;121.15;107.85;;;;;;;;;;5134305;28;20195;-68
2022/01/19 15:44:45;;;;;;;113.07;101.20;;;;;;;;;;5134160;28;20210;-68
2022/01/19 15:47:14;;;;;;;109.35;97.72;;;;;;;;;;5133661;28;20218;-67
2022/01/19 15:49:43;;;;;;;101.45;90.47;;;;;;;;;;5114031;28;20210;-69
2022/01/19 15:52:10;;;;;;;94.05;83.88;;;;;;;;;;5124602;28;20218;-69
2022/01/19 15:54:38;;;;;;;92.88;80.82;;;;;;;;;;5130950;28;20357;-68
2022/01/19 15:57:07;;;;;;;81.57;72.75;;;;;;;;;;5131416;28;20202;-70
2022/01/19 15:59:34;;;;;;;76.63;68.22;;;;;;;;;;5131648;28;20476;-70
2022/01/19 16:02:02;;;;;;;72.35;64.50;;;;;;;;;;5132214;28;20202;-70